sensor_id;sensor_type;location;lat;lon;timestamp;pressure;altitude;pressure_sealevel;temperature;humidity
72226;BME280;60130;52.250;5.048;2022-09-09T00:00:00;1007.3;;;16.3;82.5
72226;BME280;60130;52.250;5.048;2022-09-09T00:05:12;1007.3;;;16.2;82.9
72226;BME280;60130;52.250;5.048;2022-09-09T00:10:07;1007.3;;;16.3;82.9
72226;BME280;60130;52.250;5.048;2022-09-09T00:15:02;1007.3;;;16.2;83.2
72226;BME280;60130;52.250;5.048;2022-09-09T00:20:03;1007.2;;;16.3;83.0
72226;BME280;60130;52.250;5.048;2022-09-09T00:25:08;1007.3;;;16.3;83.5
72226;BME280;60130;52.250;5.048;2022-09-09T00:30:14;1007.1;;;16.2;83.5
72226;BME280;60130;52.250;5.048;2022-09-09T00:35:03;1007.2;;;16.2;83.9
72226;BME280;60130;52.250;5.048;2022-09-09T00:40:02;1007.2;;;16.0;84.4
72226;BME280;60130;52.250;5.048;2022-09-09T00:45:05;1007.2;;;16.0;84.7
72226;BME280;60130;52.250;5.048;2022-09-09T00:50:03;1007.2;;;15.8;85.2
72226;BME280;60130;52.250;5.048;2022-09-09T00:55:05;1007.2;;;15.9;85.1
72226;BME280;60130;52.250;5.048;2022-09-09T01:00:19;1007.1;;;15.7;85.6
72226;BME280;60130;52.250;5.048;2022-09-09T01:05:05;1007.2;;;15.7;85.9
72226;BME280;60130;52.250;5.048;2022-09-09T01:10:03;1007.2;;;15.7;85.8
72226;BME280;60130;52.250;5.048;2022-09-09T01:15:04;1007.2;;;15.6;86.1
72226;BME280;60130;52.250;5.048;2022-09-09T01:20:07;1007.2;;;15.6;86.1
72226;BME280;60130;52.250;5.048;2022-09-09T01:25:15;1007.2;;;15.5;86.6
72226;BME280;60130;52.250;5.048;2022-09-09T01:30:00;1007.2;;;15.6;86.4
72226;BME280;60130;52.250;5.048;2022-09-09T01:35:00;1007.1;;;15.5;86.4
72226;BME280;60130;52.250;5.048;2022-09-09T01:40:00;1007.0;;;15.4;86.6
72226;BME280;60130;52.250;5.048;2022-09-09T01:45:00;1007.0;;;15.5;86.1
72226;BME280;60130;52.250;5.048;2022-09-09T01:50:00;1007.0;;;15.4;86.3
72226;BME280;60130;52.250;5.048;2022-09-09T01:55:00;1007.0;;;15.4;86.6
72226;BME280;60130;52.250;5.048;2022-09-09T02:00:05;1007.0;;;15.4;86.7
72226;BME280;60130;52.250;5.048;2022-09-09T02:05:09;1007.0;;;15.5;86.6
72226;BME280;60130;52.250;5.048;2022-09-09T02:10:03;1006.9;;;15.5;86.6
72226;BME280;60130;52.250;5.048;2022-09-09T02:15:05;1006.9;;;15.6;86.4
72226;BME280;60130;52.250;5.048;2022-09-09T02:20:06;1006.9;;;15.7;86.3
72226;BME280;60130;52.250;5.048;2022-09-09T02:25:00;1006.8;;;15.6;86.5
72226;BME280;60130;52.250;5.048;2022-09-09T02:30:01;1006.8;;;15.7;86.4
72226;BME280;60130;52.250;5.048;2022-09-09T02:35:02;1006.8;;;15.5;86.3
72226;BME280;60130;52.250;5.048;2022-09-09T02:40:00;1006.8;;;15.5;86.4
72226;BME280;60130;52.250;5.048;2022-09-09T02:45:00;1006.8;;;15.5;86.6
72226;BME280;60130;52.250;5.048;2022-09-09T02:50:06;1006.7;;;15.5;86.8
72226;BME280;60130;52.250;5.048;2022-09-09T02:55:05;1006.7;;;15.6;86.5
72226;BME280;60130;52.250;5.048;2022-09-09T03:00:00;1006.7;;;15.5;86.7
72226;BME280;60130;52.250;5.048;2022-09-09T03:05:00;1006.7;;;15.5;86.5
72226;BME280;60130;52.250;5.048;2022-09-09T03:10:00;1006.7;;;15.5;86.3
72226;BME280;60130;52.250;5.048;2022-09-09T03:15:00;1006.7;;;15.4;86.9
72226;BME280;60130;52.250;5.048;2022-09-09T03:20:00;1006.6;;;15.4;86.8
72226;BME280;60130;52.250;5.048;2022-09-09T03:25:00;1006.6;;;15.3;86.3
72226;BME280;60130;52.250;5.048;2022-09-09T03:30:00;1006.7;;;15.2;86.1
72226;BME280;60130;52.250;5.048;2022-09-09T03:35:00;1006.6;;;14.9;86.7
72226;BME280;60130;52.250;5.048;2022-09-09T03:40:00;1006.6;;;14.8;87.0
72226;BME280;60130;52.250;5.048;2022-09-09T03:45:00;1006.6;;;14.6;87.4
72226;BME280;60130;52.250;5.048;2022-09-09T03:50:00;1006.7;;;14.5;88.0
72226;BME280;60130;52.250;5.048;2022-09-09T03:55:00;1006.6;;;14.6;88.1
72226;BME280;60130;52.250;5.048;2022-09-09T04:00:00;1006.6;;;14.6;88.1
72226;BME280;60130;52.250;5.048;2022-09-09T04:05:00;1006.6;;;14.6;88.1
72226;BME280;60130;52.250;5.048;2022-09-09T04:10:00;1006.6;;;14.7;88.3
72226;BME280;60130;52.250;5.048;2022-09-09T04:15:00;1006.5;;;14.7;88.5
72226;BME280;60130;52.250;5.048;2022-09-09T04:20:00;1006.5;;;14.7;88.4
72226;BME280;60130;52.250;5.048;2022-09-09T04:25:00;1006.4;;;14.7;88.2
72226;BME280;60130;52.250;5.048;2022-09-09T04:30:00;1006.4;;;14.7;88.1
72226;BME280;60130;52.250;5.048;2022-09-09T04:35:00;1006.3;;;14.7;88.0
72226;BME280;60130;52.250;5.048;2022-09-09T04:40:00;1006.2;;;14.7;87.8
72226;BME280;60130;52.250;5.048;2022-09-09T04:45:00;1006.2;;;14.7;87.7
72226;BME280;60130;52.250;5.048;2022-09-09T04:50:00;1006.2;;;14.7;87.5
72226;BME280;60130;52.250;5.048;2022-09-09T04:55:00;1006.2;;;14.7;87.4
72226;BME280;60130;52.250;5.048;2022-09-09T05:00:00;1006.2;;;14.7;88.0
72226;BME280;60130;52.250;5.048;2022-09-09T05:05:00;1006.3;;;14.8;88.1
72226;BME280;60130;52.250;5.048;2022-09-09T05:10:00;1006.2;;;14.8;87.9
72226;BME280;60130;52.250;5.048;2022-09-09T05:15:00;1006.2;;;14.9;87.9
72226;BME280;60130;52.250;5.048;2022-09-09T05:20:00;1006.1;;;14.8;87.8
72226;BME280;60130;52.250;5.048;2022-09-09T05:25:00;1006.2;;;14.8;87.7
72226;BME280;60130;52.250;5.048;2022-09-09T05:30:00;1006.2;;;14.8;87.8
72226;BME280;60130;52.250;5.048;2022-09-09T05:35:00;1006.2;;;14.8;88.5
72226;BME280;60130;52.250;5.048;2022-09-09T05:40:00;1006.2;;;15.0;88.2
72226;BME280;60130;52.250;5.048;2022-09-09T05:45:00;1006.1;;;15.1;88.0
72226;BME280;60130;52.250;5.048;2022-09-09T05:50:00;1006.2;;;15.2;87.5
72226;BME280;60130;52.250;5.048;2022-09-09T05:55:00;1006.2;;;15.4;86.7
72226;BME280;60130;52.250;5.048;2022-09-09T06:00:00;1006.2;;;15.6;86.5
72226;BME280;60130;52.250;5.048;2022-09-09T06:05:00;1006.2;;;15.9;86.1
72226;BME280;60130;52.250;5.048;2022-09-09T06:10:00;1006.2;;;16.2;85.2
72226;BME280;60130;52.250;5.048;2022-09-09T06:15:00;1006.2;;;16.7;83.6
72226;BME280;60130;52.250;5.048;2022-09-09T06:20:00;1006.2;;;17.2;81.1
72226;BME280;60130;52.250;5.048;2022-09-09T06:25:00;1006.3;;;18.0;78.9
72226;BME280;60130;52.250;5.048;2022-09-09T06:30:00;1006.3;;;19.1;75.6
72226;BME280;60130;52.250;5.048;2022-09-09T06:35:00;1006.2;;;17.8;78.0
72226;BME280;60130;52.250;5.048;2022-09-09T06:40:00;1006.2;;;17.1;80.9
72226;BME280;60130;52.250;5.048;2022-09-09T06:45:00;1006.2;;;17.5;80.0
72226;BME280;60130;52.250;5.048;2022-09-09T06:50:00;1006.1;;;16.8;82.0
72226;BME280;60130;52.250;5.048;2022-09-09T06:55:00;1006.2;;;17.5;80.1
72226;BME280;60130;52.250;5.048;2022-09-09T07:00:00;1006.2;;;17.6;80.0
72226;BME280;60130;52.250;5.048;2022-09-09T07:05:00;1006.3;;;18.2;79.0
72226;BME280;60130;52.250;5.048;2022-09-09T07:10:00;1006.3;;;18.3;77.5
72226;BME280;60130;52.250;5.048;2022-09-09T07:15:00;1006.3;;;17.8;79.0
72226;BME280;60130;52.250;5.048;2022-09-09T07:20:00;1006.2;;;17.7;79.6
72226;BME280;60130;52.250;5.048;2022-09-09T07:25:00;1006.2;;;17.7;79.3
72226;BME280;60130;52.250;5.048;2022-09-09T07:30:00;1006.3;;;17.3;80.6
72226;BME280;60130;52.250;5.048;2022-09-09T07:35:00;1006.2;;;17.3;80.1
72226;BME280;60130;52.250;5.048;2022-09-09T07:40:00;1006.2;;;17.6;80.1
72226;BME280;60130;52.250;5.048;2022-09-09T07:45:00;1006.2;;;17.5;79.8
72226;BME280;60130;52.250;5.048;2022-09-09T07:50:00;1006.2;;;17.9;79.1
72226;BME280;60130;52.250;5.048;2022-09-09T07:55:00;1006.2;;;17.9;78.2
72226;BME280;60130;52.250;5.048;2022-09-09T08:00:00;1006.2;;;17.6;79.1
72226;BME280;60130;52.250;5.048;2022-09-09T08:05:00;1006.3;;;17.5;79.1
72226;BME280;60130;52.250;5.048;2022-09-09T08:10:00;1006.2;;;17.5;79.3
72226;BME280;60130;52.250;5.048;2022-09-09T08:15:00;1006.2;;;17.7;79.0
72226;BME280;60130;52.250;5.048;2022-09-09T08:20:00;1006.2;;;18.2;77.2
72226;BME280;60130;52.250;5.048;2022-09-09T08:25:00;1006.2;;;18.4;76.4
72226;BME280;60130;52.250;5.048;2022-09-09T08:30:00;1006.3;;;18.9;75.4
72226;BME280;60130;52.250;5.048;2022-09-09T08:35:00;1006.3;;;18.9;74.7
72226;BME280;60130;52.250;5.048;2022-09-09T08:40:00;1006.3;;;18.6;75.4
72226;BME280;60130;52.250;5.048;2022-09-09T08:45:12;1006.4;;;18.1;77.1
72226;BME280;60130;52.250;5.048;2022-09-09T08:50:06;1006.4;;;18.0;77.0
72226;BME280;60130;52.250;5.048;2022-09-09T08:55:05;1006.3;;;18.2;76.7
72226;BME280;60130;52.250;5.048;2022-09-09T09:00:00;1006.4;;;18.4;76.6
72226;BME280;60130;52.250;5.048;2022-09-09T09:05:09;1006.4;;;18.2;75.9
72226;BME280;60130;52.250;5.048;2022-09-09T09:10:04;1006.5;;;18.1;76.7
72226;BME280;60130;52.250;5.048;2022-09-09T09:15:00;1006.4;;;18.3;76.0
72226;BME280;60130;52.250;5.048;2022-09-09T09:20:00;1006.4;;;18.5;75.5
72226;BME280;60130;52.250;5.048;2022-09-09T09:25:03;1006.5;;;18.4;75.3
72226;BME280;60130;52.250;5.048;2022-09-09T09:30:02;1006.5;;;18.1;76.7
72226;BME280;60130;52.250;5.048;2022-09-09T09:35:01;1006.5;;;18.1;77.4
72226;BME280;60130;52.250;5.048;2022-09-09T09:40:08;1006.5;;;17.9;77.5
72226;BME280;60130;52.250;5.048;2022-09-09T09:45:07;1006.5;;;18.2;77.3
72226;BME280;60130;52.250;5.048;2022-09-09T09:50:00;1006.5;;;18.5;76.7
72226;BME280;60130;52.250;5.048;2022-09-09T09:55:03;1006.5;;;18.5;77.0
72226;BME280;60130;52.250;5.048;2022-09-09T10:00:01;1006.5;;;18.7;76.0
72226;BME280;60130;52.250;5.048;2022-09-09T10:05:00;1006.5;;;18.7;75.5
72226;BME280;60130;52.250;5.048;2022-09-09T10:10:00;1006.5;;;18.9;75.9
72226;BME280;60130;52.250;5.048;2022-09-09T10:15:04;1006.5;;;19.0;74.6
72226;BME280;60130;52.250;5.048;2022-09-09T10:20:15;1006.5;;;19.7;74.0
72226;BME280;60130;52.250;5.048;2022-09-09T10:25:05;1006.5;;;19.7;72.9
72226;BME280;60130;52.250;5.048;2022-09-09T10:30:06;1006.2;;;18.7;75.7
72226;BME280;60130;52.250;5.048;2022-09-09T10:35:04;1006.5;;;18.0;80.1
72226;BME280;60130;52.250;5.048;2022-09-09T10:40:05;1006.6;;;18.1;81.1
72226;BME280;60130;52.250;5.048;2022-09-09T10:45:10;1006.5;;;19.2;80.5
72226;BME280;60130;52.250;5.048;2022-09-09T10:50:13;1006.4;;;19.8;77.2
72226;BME280;60130;52.250;5.048;2022-09-09T10:55:02;1006.4;;;19.7;76.0
72226;BME280;60130;52.250;5.048;2022-09-09T11:00:03;1006.4;;;19.9;76.1
72226;BME280;60130;52.250;5.048;2022-09-09T11:05:02;1006.4;;;19.7;75.7
72226;BME280;60130;52.250;5.048;2022-09-09T11:10:02;1006.3;;;19.7;75.0
72226;BME280;60130;52.250;5.048;2022-09-09T11:15:04;1006.4;;;19.2;75.7
72226;BME280;60130;52.250;5.048;2022-09-09T11:20:00;1006.3;;;19.0;76.9
72226;BME280;60130;52.250;5.048;2022-09-09T11:25:03;1006.3;;;19.0;76.5
72226;BME280;60130;52.250;5.048;2022-09-09T11:30:10;1006.3;;;19.0;76.7
72226;BME280;60130;52.250;5.048;2022-09-09T11:35:07;1006.3;;;18.8;77.1
72226;BME280;60130;52.250;5.048;2022-09-09T11:40:08;1006.3;;;19.0;76.7
72226;BME280;60130;52.250;5.048;2022-09-09T11:45:08;1006.3;;;18.8;78.5
72226;BME280;60130;52.250;5.048;2022-09-09T11:50:09;1006.3;;;18.7;79.9
72226;BME280;60130;52.250;5.048;2022-09-09T11:55:08;1006.3;;;19.1;80.3
72226;BME280;60130;52.250;5.048;2022-09-09T12:00:00;1006.4;;;18.4;81.0
72226;BME280;60130;52.250;5.048;2022-09-09T12:05:02;1006.3;;;17.9;83.8
72226;BME280;60130;52.250;5.048;2022-09-09T12:10:04;1006.4;;;17.9;84.3
72226;BME280;60130;52.250;5.048;2022-09-09T12:20:01;1006.4;;;19.1;79.8
72226;BME280;60130;52.250;5.048;2022-09-09T12:25:06;1006.4;;;19.9;77.8
72226;BME280;60130;52.250;5.048;2022-09-09T12:30:03;1006.4;;;19.5;77.8
72226;BME280;60130;52.250;5.048;2022-09-09T12:35:03;1006.3;;;19.4;77.9
72226;BME280;60130;52.250;5.048;2022-09-09T12:40:01;1006.3;;;19.3;78.9
72226;BME280;60130;52.250;5.048;2022-09-09T12:45:01;1006.3;;;19.0;77.6
72226;BME280;60130;52.250;5.048;2022-09-09T12:50:00;1006.2;;;19.1;77.9
72226;BME280;60130;52.250;5.048;2022-09-09T12:55:02;1006.3;;;18.9;78.3
72226;BME280;60130;52.250;5.048;2022-09-09T13:00:07;1006.2;;;19.0;77.2
72226;BME280;60130;52.250;5.048;2022-09-09T13:05:06;1006.2;;;19.1;78.1
72226;BME280;60130;52.250;5.048;2022-09-09T13:10:00;1006.2;;;19.0;77.9
72226;BME280;60130;52.250;5.048;2022-09-09T13:15:00;1006.2;;;18.7;78.1
72226;BME280;60130;52.250;5.048;2022-09-09T13:20:00;1006.1;;;18.7;78.9
72226;BME280;60130;52.250;5.048;2022-09-09T13:25:03;1006.2;;;18.8;78.0
72226;BME280;60130;52.250;5.048;2022-09-09T13:30:00;1006.2;;;18.7;79.7
72226;BME280;60130;52.250;5.048;2022-09-09T13:35:01;1006.2;;;18.4;81.8
72226;BME280;60130;52.250;5.048;2022-09-09T13:40:00;1006.2;;;18.1;84.1
72226;BME280;60130;52.250;5.048;2022-09-09T13:55:00;1006.2;;;18.6;81.7
72226;BME280;60130;52.250;5.048;2022-09-09T14:00:00;1006.2;;;18.4;82.3
72226;BME280;60130;52.250;5.048;2022-09-09T14:05:00;1006.3;;;18.7;82.3
72226;BME280;60130;52.250;5.048;2022-09-09T14:10:00;1006.3;;;18.6;81.5
72226;BME280;60130;52.250;5.048;2022-09-09T14:15:00;1006.2;;;18.5;80.9
72226;BME280;60130;52.250;5.048;2022-09-09T14:20:00;1006.3;;;18.4;81.6
72226;BME280;60130;52.250;5.048;2022-09-09T14:25:00;1006.3;;;18.6;82.1
72226;BME280;60130;52.250;5.048;2022-09-09T14:30:00;1006.2;;;18.9;81.0
72226;BME280;60130;52.250;5.048;2022-09-09T14:35:00;1006.2;;;19.3;79.9
72226;BME280;60130;52.250;5.048;2022-09-09T14:40:00;1006.2;;;19.9;79.1
72226;BME280;60130;52.250;5.048;2022-09-09T14:45:00;1006.2;;;19.7;79.2
72226;BME280;60130;52.250;5.048;2022-09-09T14:50:00;1006.1;;;19.7;78.8
72226;BME280;60130;52.250;5.048;2022-09-09T14:55:00;1006.1;;;19.7;79.4
72226;BME280;60130;52.250;5.048;2022-09-09T15:00:00;1006.1;;;19.5;77.3
72226;BME280;60130;52.250;5.048;2022-09-09T15:05:00;1006.2;;;19.3;77.8
72226;BME280;60130;52.250;5.048;2022-09-09T15:10:00;1006.3;;;19.0;78.2
72226;BME280;60130;52.250;5.048;2022-09-09T15:15:00;1006.4;;;18.8;78.6
72226;BME280;60130;52.250;5.048;2022-09-09T15:20:00;1006.5;;;18.8;77.7
72226;BME280;60130;52.250;5.048;2022-09-09T15:25:00;1006.5;;;18.4;78.8
72226;BME280;60130;52.250;5.048;2022-09-09T15:30:00;1006.5;;;18.4;80.3
72226;BME280;60130;52.250;5.048;2022-09-09T15:35:00;1006.4;;;18.5;80.9
72226;BME280;60130;52.250;5.048;2022-09-09T15:40:00;1006.5;;;18.6;81.8
72226;BME280;60130;52.250;5.048;2022-09-09T15:45:00;1006.5;;;18.7;81.8
72226;BME280;60130;52.250;5.048;2022-09-09T15:50:00;1006.5;;;19.4;80.3
72226;BME280;60130;52.250;5.048;2022-09-09T15:55:00;1006.5;;;20.0;79.0
72226;BME280;60130;52.250;5.048;2022-09-09T16:00:01;1006.5;;;20.3;76.7
72226;BME280;60130;52.250;5.048;2022-09-09T16:05:00;1006.5;;;20.3;76.4
72226;BME280;60130;52.250;5.048;2022-09-09T16:10:00;1006.5;;;19.8;77.6
72226;BME280;60130;52.250;5.048;2022-09-09T16:15:00;1006.5;;;19.6;78.3
72226;BME280;60130;52.250;5.048;2022-09-09T16:20:00;1006.5;;;19.4;78.7
72226;BME280;60130;52.250;5.048;2022-09-09T16:25:00;1006.4;;;19.0;79.3
72226;BME280;60130;52.250;5.048;2022-09-09T16:30:00;1006.5;;;19.0;80.2
72226;BME280;60130;52.250;5.048;2022-09-09T16:35:00;1006.5;;;18.6;82.2
72226;BME280;60130;52.250;5.048;2022-09-09T16:40:00;1006.5;;;18.0;82.9
72226;BME280;60130;52.250;5.048;2022-09-09T16:45:00;1006.6;;;18.2;83.1
72226;BME280;60130;52.250;5.048;2022-09-09T16:50:00;1006.6;;;18.2;84.4
72226;BME280;60130;52.250;5.048;2022-09-09T16:55:00;1006.7;;;18.2;85.0
72226;BME280;60130;52.250;5.048;2022-09-09T17:00:00;1006.8;;;18.3;85.4
72226;BME280;60130;52.250;5.048;2022-09-09T17:05:00;1006.8;;;18.3;85.1
72226;BME280;60130;52.250;5.048;2022-09-09T17:10:00;1006.8;;;18.1;85.6
72226;BME280;60130;52.250;5.048;2022-09-09T17:15:00;1006.8;;;18.1;85.8
72226;BME280;60130;52.250;5.048;2022-09-09T17:20:00;1006.9;;;18.2;85.6
72226;BME280;60130;52.250;5.048;2022-09-09T17:25:00;1007.0;;;18.1;84.0
72226;BME280;60130;52.250;5.048;2022-09-09T17:30:00;1007.0;;;18.3;84.3
72226;BME280;60130;52.250;5.048;2022-09-09T17:35:00;1007.0;;;18.2;84.6
72226;BME280;60130;52.250;5.048;2022-09-09T17:40:00;1007.0;;;18.1;85.3
72226;BME280;60130;52.250;5.048;2022-09-09T17:45:00;1007.0;;;18.1;84.6
72226;BME280;60130;52.250;5.048;2022-09-09T17:50:00;1007.1;;;17.9;84.7
72226;BME280;60130;52.250;5.048;2022-09-09T17:55:00;1007.2;;;17.8;84.9
72226;BME280;60130;52.250;5.048;2022-09-09T18:00:00;1007.2;;;17.7;84.8
72226;BME280;60130;52.250;5.048;2022-09-09T18:05:00;1007.1;;;17.6;85.5
72226;BME280;60130;52.250;5.048;2022-09-09T18:10:00;1007.2;;;17.6;85.8
72226;BME280;60130;52.250;5.048;2022-09-09T18:15:00;1007.2;;;17.5;86.3
72226;BME280;60130;52.250;5.048;2022-09-09T18:20:00;1007.3;;;17.5;86.6
72226;BME280;60130;52.250;5.048;2022-09-09T18:25:00;1007.3;;;17.4;86.9
72226;BME280;60130;52.250;5.048;2022-09-09T18:30:00;1007.4;;;17.4;86.7
72226;BME280;60130;52.250;5.048;2022-09-09T18:35:00;1007.5;;;17.5;86.2
72226;BME280;60130;52.250;5.048;2022-09-09T18:40:00;1007.5;;;17.6;86.0
72226;BME280;60130;52.250;5.048;2022-09-09T18:45:00;1007.6;;;17.7;85.3
72226;BME280;60130;52.250;5.048;2022-09-09T18:50:00;1007.6;;;17.8;85.5
72226;BME280;60130;52.250;5.048;2022-09-09T18:55:00;1007.6;;;17.7;85.5
72226;BME280;60130;52.250;5.048;2022-09-09T19:00:00;1007.6;;;17.5;85.6
72226;BME280;60130;52.250;5.048;2022-09-09T19:05:00;1007.6;;;17.5;85.9
72226;BME280;60130;52.250;5.048;2022-09-09T19:10:00;1007.7;;;17.5;86.6
72226;BME280;60130;52.250;5.048;2022-09-09T19:15:00;1007.8;;;17.5;86.8
72226;BME280;60130;52.250;5.048;2022-09-09T19:20:00;1007.8;;;17.4;86.7
72226;BME280;60130;52.250;5.048;2022-09-09T19:25:00;1007.8;;;17.2;87.6
72226;BME280;60130;52.250;5.048;2022-09-09T19:30:00;1008.0;;;17.0;87.8
72226;BME280;60130;52.250;5.048;2022-09-09T19:35:00;1008.1;;;17.0;88.0
72226;BME280;60130;52.250;5.048;2022-09-09T19:40:00;1008.1;;;16.9;87.9
72226;BME280;60130;52.250;5.048;2022-09-09T19:45:00;1008.1;;;16.8;87.7
72226;BME280;60130;52.250;5.048;2022-09-09T19:50:00;1008.1;;;16.9;87.4
72226;BME280;60130;52.250;5.048;2022-09-09T19:55:00;1008.1;;;16.7;87.7
72226;BME280;60130;52.250;5.048;2022-09-09T20:00:00;1008.2;;;16.7;87.2
72226;BME280;60130;52.250;5.048;2022-09-09T20:05:00;1008.3;;;16.8;87.0
72226;BME280;60130;52.250;5.048;2022-09-09T20:10:00;1008.3;;;16.9;86.6
72226;BME280;60130;52.250;5.048;2022-09-09T20:15:00;1008.3;;;16.9;86.7
72226;BME280;60130;52.250;5.048;2022-09-09T20:20:00;1008.3;;;16.8;87.0
72226;BME280;60130;52.250;5.048;2022-09-09T20:25:00;1008.3;;;16.8;87.1
72226;BME280;60130;52.250;5.048;2022-09-09T20:30:00;1008.3;;;16.8;87.4
72226;BME280;60130;52.250;5.048;2022-09-09T20:35:00;1008.4;;;16.8;87.4
72226;BME280;60130;52.250;5.048;2022-09-09T20:40:00;1008.4;;;16.8;87.5
72226;BME280;60130;52.250;5.048;2022-09-09T20:45:00;1008.3;;;16.6;87.7
72226;BME280;60130;52.250;5.048;2022-09-09T20:50:00;1008.4;;;16.7;87.8
72226;BME280;60130;52.250;5.048;2022-09-09T20:55:00;1008.4;;;16.7;87.6
72226;BME280;60130;52.250;5.048;2022-09-09T21:00:00;1008.4;;;16.7;87.5
72226;BME280;60130;52.250;5.048;2022-09-09T21:05:00;1008.4;;;16.6;87.9
72226;BME280;60130;52.250;5.048;2022-09-09T21:10:00;1008.4;;;16.6;87.8
72226;BME280;60130;52.250;5.048;2022-09-09T21:15:00;1008.3;;;16.6;87.8
72226;BME280;60130;52.250;5.048;2022-09-09T21:20:00;1008.2;;;16.6;87.7
72226;BME280;60130;52.250;5.048;2022-09-09T21:25:00;1008.2;;;16.5;88.2
72226;BME280;60130;52.250;5.048;2022-09-09T21:30:00;1008.3;;;16.5;88.3
72226;BME280;60130;52.250;5.048;2022-09-09T21:35:00;1008.3;;;16.4;88.1
72226;BME280;60130;52.250;5.048;2022-09-09T21:40:00;1008.3;;;16.5;88.1
72226;BME280;60130;52.250;5.048;2022-09-09T21:45:00;1008.3;;;16.4;88.7
72226;BME280;60130;52.250;5.048;2022-09-09T21:50:00;1008.3;;;16.4;88.8
72226;BME280;60130;52.250;5.048;2022-09-09T21:55:00;1008.3;;;16.4;89.1
72226;BME280;60130;52.250;5.048;2022-09-09T22:00:00;1008.4;;;16.4;88.9
72226;BME280;60130;52.250;5.048;2022-09-09T22:05:00;1008.4;;;16.5;88.8
72226;BME280;60130;52.250;5.048;2022-09-09T22:10:00;1008.5;;;16.4;88.8
72226;BME280;60130;52.250;5.048;2022-09-09T22:15:00;1008.6;;;16.6;88.6
72226;BME280;60130;52.250;5.048;2022-09-09T22:20:00;1008.6;;;16.6;88.6
72226;BME280;60130;52.250;5.048;2022-09-09T22:25:00;1008.6;;;16.6;89.0
72226;BME280;60130;52.250;5.048;2022-09-09T22:30:00;1008.5;;;16.6;89.1
72226;BME280;60130;52.250;5.048;2022-09-09T22:35:00;1008.5;;;16.5;89.3
72226;BME280;60130;52.250;5.048;2022-09-09T22:40:00;1008.4;;;16.5;89.4
72226;BME280;60130;52.250;5.048;2022-09-09T22:45:00;1008.4;;;16.6;89.5
72226;BME280;60130;52.250;5.048;2022-09-09T22:50:00;1008.4;;;16.6;89.2
72226;BME280;60130;52.250;5.048;2022-09-09T22:55:00;1008.5;;;16.6;89.5
72226;BME280;60130;52.250;5.048;2022-09-09T23:00:00;1008.5;;;16.7;89.5
72226;BME280;60130;52.250;5.048;2022-09-09T23:05:00;1008.5;;;16.7;89.2
72226;BME280;60130;52.250;5.048;2022-09-09T23:10:00;1008.6;;;16.8;89.4
72226;BME280;60130;52.250;5.048;2022-09-09T23:15:00;1008.5;;;16.7;89.4
72226;BME280;60130;52.250;5.048;2022-09-09T23:20:00;1008.5;;;16.7;89.7
72226;BME280;60130;52.250;5.048;2022-09-09T23:25:00;1008.5;;;16.7;90.0
72226;BME280;60130;52.250;5.048;2022-09-09T23:30:00;1008.5;;;16.6;90.4
72226;BME280;60130;52.250;5.048;2022-09-09T23:35:00;1008.5;;;16.5;90.6
72226;BME280;60130;52.250;5.048;2022-09-09T23:40:00;1008.5;;;16.6;90.7
72226;BME280;60130;52.250;5.048;2022-09-09T23:45:00;1008.4;;;16.5;91.0
72226;BME280;60130;52.250;5.048;2022-09-09T23:50:00;1008.4;;;16.5;91.2
72226;BME280;60130;52.250;5.048;2022-09-09T23:55:00;1008.4;;;16.5;91.0
